Terminal Aerodrome Forecast
Issued by NWS

Home | Current Version | Previous Version | Text Only | Print | Product List | Glossary On
Versions: 1 2 3 4 5 6 7 8 9 10 11 12 13 14 15
000
FTUS42 KFFC 172336
TAFFTY
TAF
KFTY 172336Z 1800/1824 00000KT 6SM BR VCSH BKN020
     FM180400 00000KT 2SM -DZ BR BKN006
     FM181200 00000KT 1SM -DZ BR OVC004
     FM181600 28004KT 6SM BR OVC008
     FM181900 28006KT P6SM OVC015
     FM182300 28005KT P6SM FEW020 OVC100=

USA.gov is the U.S. government's official web portal to all federal, state and local government web resources and services.